Latest Coastal Weather Observations for Legendre Island

IDW60701

Issued at 10:45 pm WST Thursday 24 April 2014 (issued every 10 minutes, with the page automatically refreshed every 10 minutes)

About coastal observations | Map of coastal stations | Coastal observations for WA | Marine services | Other Formats
Station Details ID: 004095 Name: LEGENDRE ISLAND Lat: -20.36 Lon: 116.84 Height: 29.0 m
Data from the previous 72 hours. | See also: Recent months for locations in Western Australia
Date/Time
WST
Temp

°C
Wind Pressure Rain
since 9am
mm
Weather Cloud Vis
km
Sea
Height
m
Swell
Dir
 
Speed
knots
Gust
knots
hPa Trend Height
m
Period
s
Dir
24/10:30pm 26.1 W 8 10 1010.5 - - - - - - - - -
24/10:00pm 26.3 W 9 11 1010.5 - - - - - - - - -
24/09:30pm 26.3 W 9 10 1010.7 - - - - - - - - -
24/09:00pm 26.4 W 9 10 1010.5 - - - - - - - - -
24/08:30pm 26.0 WSW 8 9 1010.5 - - - - - - - - -
24/08:00pm 26.2 WSW 8 9 1010.1 - - - - - - - - -
24/07:30pm 25.7 WSW 6 8 1010.0 - - - - - - - - -
24/07:00pm 26.2 WSW 6 8 1009.5 - - - - - - - - -
24/06:30pm 26.2 WSW 5 6 1009.5 - - - - - - - - -
24/06:00pm 27.0 WSW 7 8 1009.1 - - - - - - - - -
24/05:30pm 28.3 W 7 10 1009.1 - - - - - - - - -
24/05:00pm 29.1 W 8 9 1008.5 - - - - - - - - -
24/04:30pm 29.9 W 7 9 1008.5 - - - - - - - - -
24/04:00pm 30.4 W 8 10 1008.1 - - - - - - - - -
24/03:30pm 30.8 WNW 7 10 1008.2 - - - - - - - - -
24/03:00pm 30.9 WNW 7 9 1008.0 - - - - - - - - -
24/02:30pm 31.1 WNW 7 10 1008.4 - - - - - - - - -
24/02:00pm 31.1 W 6 9 1008.5 - - - - - - - - -
24/01:30pm 31.1 W 7 9 1009.1 - - - - - - - - -
24/01:00pm 31.1 W 6 9 1009.3 - - - - - - - - -
24/12:30pm 31.5 W 6 9 1010.0 - - - - - - - - -
24/12:00pm 31.7 WSW 6 9 1010.3 - - - - - - - - -
24/11:30am 31.2 W 5 8 1010.8 - - - - - - - - -
24/11:00am 31.5 WSW 6 7 1010.9 - - - - - - - - -
24/10:30am 30.4 SW 5 7 1011.5 - - - - - - - - -
24/10:00am 29.1 SSW 6 8 1011.4 - - - - - - - - -
24/09:30am 28.8 SSW 7 9 1011.7 - - - - - - - - -
24/09:00am 28.6 SW 7 9 1011.3 - - - - - - - - -
24/08:30am 28.2 SW 6 8 1011.4 - - - - - - - - -
24/08:00am 27.4 SW 6 8 1011.0 - - - - - - - - -
24/07:30am 26.5 SW 7 9 1010.9 - - - - - - - - -
24/07:00am 25.4 SW 7 8 1010.4 - - - - - - - - -
24/06:30am 25.0 SSW 8 9 1010.3 - - - - - - - - -
24/06:00am 25.3 SW 8 9 1010.1 - - - - - - - - -
24/05:30am 25.1 SW 8 9 1010.1 - - - - - - - - -
24/05:00am 25.1 SW 8 10 1009.6 - - - - - - - - -
24/04:30am 24.9 SSW 6 7 1009.6 - - - - - - - - -
24/04:00am 24.9 SW 6 7 1009.3 - - - - - - - - -
24/03:30am 25.1 SW 7 8 1009.5 - - - - - - - - -
24/03:00am 25.6 SW 8 10 1009.3 - - - - - - - - -
24/02:30am 25.5 SW 8 9 1009.4 - - - - - - - - -
24/02:00am 25.8 SW 9 11 1009.5 - - - - - - - - -
24/01:30am 25.8 SW 9 11 1009.9 - - - - - - - - -
24/01:00am 25.9 WSW 10 11 1010.1 - - - - - - - - -
24/12:30am 25.6 WSW 7 8 1010.6 - - - - - - - - -
24/12:00am 26.0 WSW 8 8 1010.5 - - - - - - - - -
 
Date/Time
WST
Temp

°C
Wind Pressure Rain
since 9am
mm
Weather Cloud Vis
km
Sea
Height
m
Swell
Dir
 
Speed
knots
Gust
knots
hPa Trend Height
m
Period
s
Dir
23/11:30pm 25.9 WSW 7 9 1010.9 - - - - - - - - -
23/11:00pm 26.4 SW 10 11 1010.9 - - - - - - - - -
23/10:30pm 26.2 SW 9 10 1011.2 - - - - - - - - -
23/10:00pm 26.3 WSW 8 10 1011.2 - - - - - - - - -
23/09:30pm 26.4 WSW 9 10 1011.5 - - - - - - - - -
23/09:00pm 26.2 W 8 9 1011.6 - - - - - - - - -
23/08:30pm 26.1 WSW 7 8 1011.8 - - - - - - - - -
23/08:00pm 26.1 WSW 7 8 1011.5 - - - - - - - - -
23/07:30pm 26.6 WSW 7 8 1011.4 - - - - - - - - -
23/07:00pm 26.8 W 7 9 1011.1 - - - - - - - - -
23/06:30pm 27.0 W 7 7 1011.1 - - - - - - - - -
23/06:00pm 27.6 W 6 7 1010.6 - - - - - - - - -
23/05:30pm 28.9 WNW 6 8 1010.4 - - - - - - - - -
23/05:00pm 29.8 WNW 6 8 1010.0 - - - - - - - - -
23/04:30pm 30.1 WNW 6 8 1009.9 - - - - - - - - -
23/04:00pm 30.3 NW 7 9 1009.6 - - - - - - - - -
23/03:30pm 29.9 NW 7 8 1009.8 - - - - - - - - -
23/03:00pm 30.1 NNW 6 7 1009.7 - - - - - - - - -
23/02:30pm 30.2 N 5 7 1010.0 - - - - - - - - -
23/02:00pm 30.3 N 6 7 1010.1 - - - - - - - - -
23/01:30pm 30.0 N 6 7 1010.6 - - - - - - - - -
23/01:00pm 30.1 N 5 6 1010.7 - - - - - - - - -
23/12:30pm 30.1 N 5 7 1011.1 - - - - - - - - -
23/12:00pm 30.4 N 6 7 1011.4 - - - - - - - - -
23/11:30am 29.9 NNW 6 7 1011.9 - - - - - - - - -
23/11:00am 29.9 NNW 6 7 1012.0 - - - - - - - - -
23/10:30am 30.3 NNW 5 7 1012.7 - - - - - - - - -
23/10:00am 29.4 N 4 5 1012.6 - - - - - - - - -
23/09:30am 30.0 SSW 4 5 1012.8 - - - - - - - - -
23/09:00am 28.6 SSW 4 5 1012.6 - - - - - - - - -
23/08:30am 27.9 SSW 5 7 1012.6 - - - - - - - - -
23/08:00am 27.1 SSW 6 7 1012.2 - - - - - - - - -
23/07:30am 26.1 SSW 6 7 1012.2 - - - - - - - - -
23/07:00am 25.0 S 7 8 1011.7 - - - - - - - - -
23/06:30am 24.6 S 7 9 1011.7 - - - - - - - - -
23/06:00am 25.0 S 9 11 1011.5 - - - - - - - - -
23/05:30am 25.2 SSW 11 14 1011.5 - - - - - - - - -
23/05:00am 25.4 SSW 10 12 1011.2 - - - - - - - - -
23/04:30am 25.4 SSW 10 11 1011.2 - - - - - - - - -
23/04:00am 25.4 SSW 8 10 1011.1 - - - - - - - - -
23/03:30am 25.8 S 11 12 1011.4 - - - - - - - - -
23/03:00am 26.2 SW 9 11 1011.2 - - - - - - - - -
23/02:30am 26.3 SW 10 11 1011.5 - - - - - - - - -
23/02:00am 26.5 WSW 11 13 1011.4 - - - - - - - - -
23/01:30am 26.4 WSW 10 11 1011.9 - - - - - - - - -
23/01:00am 26.5 WSW 10 11 1012.0 - - - - - - - - -
23/12:30am 26.4 W 8 10 1012.5 - - - - - - - - -
23/12:00am 26.5 W 8 10 1012.5 - - - - - - - - -
 
Date/Time
WST
Temp

°C
Wind Pressure Rain
since 9am
mm
Weather Cloud Vis
km
Sea
Height
m
Swell
Dir
 
Speed
knots
Gust
knots
hPa Trend Height
m
Period
s
Dir
22/11:30pm 26.6 W 9 10 1012.6 - - - - - - - - -
22/11:00pm 26.6 W 8 11 1012.8 - - - - - - - - -
22/10:30pm 26.6 W 8 10 1013.1 - - - - - - - - -
22/10:00pm 26.7 W 8 10 1013.1 - - - - - - - - -
22/09:30pm 26.9 WNW 9 10 1013.3 - - - - - - - - -
22/09:00pm 27.1 NW 9 10 1013.1 - - - - - - - - -
22/08:30pm 26.8 NW 7 9 1012.9 - - - - - - - - -
22/08:00pm 26.9 NW 8 9 1012.5 - - - - - - - - -
22/07:30pm 27.3 NW 8 9 1012.4 - - - - - - - - -
22/07:00pm 27.4 NW 6 7 1011.8 - - - - - - - - -
22/06:30pm 27.4 NW 5 6 1011.9 - - - - - - - - -
22/06:00pm 27.7 NNW 4 5 1011.6 - - - - - - - - -
22/05:30pm 28.4 NNW 5 7 1011.6 - - - - - - - - -
22/05:00pm 29.2 NNW 6 8 1011.4 - - - - - - - - -
22/04:30pm 29.5 NNW 7 8 1011.6 - - - - - - - - -
22/04:00pm 29.9 NNW 7 9 1011.3 - - - - - - - - -
22/03:30pm 30.1 NNW 7 9 1011.4 - - - - - - - - -
22/03:00pm 30.3 N 6 8 1011.1 - - - - - - - - -
22/02:30pm 30.0 N 6 7 1011.3 - - - - - - - - -
22/02:00pm 30.7 N 6 7 1011.1 - - - - - - - - -
22/01:30pm 30.5 N 6 7 1011.5 - - - - - - - - -
22/01:00pm 30.7 N 5 7 1011.6 - - - - - - - - -
22/12:30pm 30.4 N 5 7 1012.0 - - - - - - - - -
22/12:00pm 30.2 N 5 7 1011.9 - - - - - - - - -
22/11:30am 32.0 WNW 4 7 1012.6 - - - - - - - - -
22/11:00am 30.9 W 4 7 1012.8 - - - - - - - - -
22/10:30am 30.0 SW 6 8 1013.1 - - - - - - - - -
22/10:00am 30.0 SW 5 7 1012.9 - - - - - - - - -
22/09:30am 29.4 SSW 8 10 1013.0 - - - - - - - - -
22/09:00am 28.5 SSW 7 9 1012.8 - - - - - - - - -
22/08:30am 28.7 SW 7 8 1012.9 - - - - - - - - -
22/08:00am 28.1 SW 6 8 1012.7 - - - - - - - - -
22/07:30am 27.4 SSW 5 7 1012.6 - - - - - - - - -
22/07:00am 26.0 SW 7 8 1012.1 - - - - - - - - -
22/06:30am 25.4 SW 7 7 1012.0 - - - - - - - - -
22/06:00am 25.7 SW 9 10 1011.7 - - - - - - - - -
22/05:30am 25.8 SW 8 10 1011.8 - - - - - - - - -
22/05:00am 26.2 SW 11 13 1011.4 - - - - - - - - -
22/04:30am 26.2 SW 10 13 1011.4 - - - - - - - - -
22/04:00am 26.5 SW 13 15 1011.2 - - - - - - - - -
22/03:30am 26.6 SW 12 15 1011.5 - - - - - - - - -
22/03:00am 26.5 WSW 9 11 1011.5 - - - - - - - - -
22/02:30am 26.4 WSW 10 12 1011.8 - - - - - - - - -
22/02:00am 26.5 WSW 10 11 1011.8 - - - - - - - - -
22/01:30am 26.6 WSW 10 11 1012.2 - - - - - - - - -
22/01:00am 26.8 WSW 11 13 1012.4 - - - - - - - - -
22/12:30am 26.9 WSW 11 13 1012.7 - - - - - - - - -
22/12:00am 27.0 WSW 12 14 1012.7 - - - - - - - - -
 
Date/Time
WST
Temp

°C
Wind Pressure Rain
since 9am
mm
Weather Cloud Vis
km
Sea
Height
m
Swell
Dir
 
Speed
knots
Gust
knots
hPa Trend Height
m
Period
s
Dir
21/11:30pm 27.0 WSW 11 13 1012.9 - - - - - - - - -
21/11:00pm 27.0 W 11 13 1012.9 - - - - - - - - -

Other Formats:

Comma delimited format used in spreadsheet applications
http://www.bom.gov.au/fwo/IDW60701/IDW60701.94307.axf

JavaScript Object Notation format (JSON) in row-major order
http://www.bom.gov.au/fwo/IDW60701/IDW60701.94307.json